Aérodrome :
LOGIN :

S'inscrire | Disclaimer

   EN    FR    IT 

 










Légende :    VFR   VFR Marginal   IFR   IFR Intensif   IFR Très Intensif
Visi : 
Plafond : 
>= 8 km
>= 3000ft
5 à 8 km
1000 à 3000 ft
1500m à 5 km
500 à 1000 ft
800 à 1500m
200 à 500 ft
< 800m
< 200 ft
Symboles :   Orages  Brouillard  Fortes neiges  Fortes précipitations  Vent > 20 kt
SIGMETs :   Divers  Orages  Givrage  Turbulence  Onde Orograph.  Cendres Volcan.







- Altitude de l'aérodrome : 357 ft
- Code IATA : TUF
- Voir les cartes d'approche


LFOT - Tours

DERNIER METAR :
  • 210100Z AUTO 06005KT CAVOK 12/09 Q1014 NOSIG

METARs EXPIRÉS :
  • 210030Z AUTO 05005KT CAVOK 12/09 Q1014 NOSIG
  • 210000Z AUTO 07004KT CAVOK 12/10 Q1014 NOSIG
  • 202330Z AUTO 06006KT CAVOK 13/10 Q1014 NOSIG
  • 202300Z AUTO 05007KT 020V080 CAVOK 15/09 Q1015 NOSIG
  • 202230Z AUTO 04006KT 360V070 CAVOK 15/10 Q1015 NOSIG

TAF TAF LFOT
Valide du 21 à 00h jusqu'au 22 à 00h UTC


202300Z 2100/2124 06008KT CAVOK
BECMG 2110/2112 VRB03KT
TEMPO 2112/2118 SHRA SCT050TCU
PROB40
TEMPO 2114/2117 21012G30KT TSRA SCT060CB
Pas de NOTAMs connus pour ce terrain.



MET'MAP, la Météo Aéronautique d'un coup d'oeil ! - Copyright ORBIFLY Décembre 2007 - Disclaimer

ORBIFLY MET'MAP TEAM :

Programmation & Développement : Alexandra Zaïnal
Conception & Développement : Baudouin d'Aumeries
Co-Programmation & Développement : Marc-Olivier Méhu
Soutien technique & logistique : Manuel Goepfert

Contact : metmap@orbifly.com




SOURCES & CREDITS :

   NOAA